createdAt,value
2022-09-05T00:00:16.690Z,14.05
2022-09-05T00:01:17.140Z,14.04
2022-09-05T00:02:16.642Z,14.04
2022-09-05T00:03:17.250Z,14.04
2022-09-05T00:04:24.154Z,14.02
2022-09-05T00:05:17.249Z,14.01
2022-09-05T00:06:16.663Z,13.97
2022-09-05T00:07:31.051Z,14.01
2022-09-05T00:08:16.568Z,13.95
2022-09-05T00:09:16.977Z,13.97
2022-09-05T00:10:16.723Z,13.95
2022-09-05T00:11:42.198Z,14.01
2022-09-05T00:12:16.518Z,13.98
2022-09-05T00:13:16.956Z,13.95
2022-09-05T00:14:16.405Z,13.95
2022-09-05T00:15:18.851Z,13.97
2022-09-05T00:16:16.839Z,13.94
2022-09-05T00:17:16.360Z,13.92
2022-09-05T00:19:10.701Z,13.91
2022-09-05T00:19:46.556Z,13.97
2022-09-05T00:23:12.125Z,13.98
2022-09-05T00:23:17.654Z,13.97
2022-09-05T00:24:23.916Z,14.02
2022-09-05T00:24:24.145Z,14.01
2022-09-05T00:24:24.329Z,14.05
2022-09-05T00:26:16.416Z,14.02
2022-09-05T00:27:16.873Z,14.05
2022-09-05T00:28:25.585Z,14.04
2022-09-05T00:29:16.579Z,14.02
2022-09-05T00:31:08.406Z,14.04
2022-09-05T00:31:52.286Z,14.05
2022-09-05T00:32:17.085Z,14.02
2022-09-05T00:33:17.785Z,14.05
2022-09-05T00:34:16.350Z,14.05
2022-09-05T00:35:16.855Z,14.05
2022-09-05T00:36:17.279Z,14.02
2022-09-05T00:37:16.697Z,14.01
2022-09-05T00:38:16.520Z,14.01
2022-09-05T00:39:16.963Z,14.01
2022-09-05T00:40:17.415Z,14.00
2022-09-05T00:41:16.554Z,14.01
2022-09-05T00:42:16.500Z,13.98
2022-09-05T00:43:17.005Z,13.95
2022-09-05T00:44:16.494Z,13.92
2022-09-05T00:45:19.436Z,13.91
2022-09-05T00:46:16.420Z,13.94
2022-09-05T00:47:17.039Z,13.92
2022-09-05T00:48:16.490Z,13.91
2022-09-05T00:49:16.942Z,13.95
2022-09-05T00:50:16.360Z,13.97
2022-09-05T00:51:16.779Z,13.95
2022-09-05T00:52:17.204Z,13.94
2022-09-05T00:53:16.623Z,13.97
2022-09-05T00:54:17.040Z,13.91
2022-09-05T00:55:17.110Z,13.88
2022-09-05T00:56:16.552Z,13.82
2022-09-05T00:57:17.961Z,13.82
2022-09-05T00:58:16.619Z,13.78
2022-09-05T00:59:17.076Z,13.80
2022-09-05T01:00:17.769Z,13.77
2022-09-05T01:01:20.750Z,13.77
2022-09-05T01:02:16.975Z,13.77
2022-09-05T01:03:16.737Z,14.93
2022-09-05T01:04:16.435Z,13.74
2022-09-05T01:05:16.897Z,13.74
2022-09-05T01:06:16.989Z,13.78
2022-09-05T01:07:16.464Z,13.77
2022-09-05T01:08:16.906Z,13.71
2022-09-05T01:09:16.315Z,13.67
2022-09-05T01:10:16.729Z,13.67
2022-09-05T01:11:17.183Z,13.67
2022-09-05T01:12:16.728Z,14.94
2022-09-05T01:13:17.228Z,13.68
2022-09-05T01:14:16.682Z,13.68
2022-09-05T01:15:17.142Z,13.71
2022-09-05T01:16:16.734Z,13.68
2022-09-05T01:17:16.399Z,13.68
2022-09-05T01:18:16.844Z,13.68
2022-09-05T01:19:17.260Z,13.77
2022-09-05T01:20:18.769Z,13.73
2022-09-05T01:21:16.916Z,13.67
2022-09-05T01:22:16.824Z,13.65
2022-09-05T01:23:17.284Z,13.64
2022-09-05T01:24:16.701Z,13.64
2022-09-05T01:25:16.613Z,13.61
2022-09-05T01:26:17.045Z,13.64
2022-09-05T01:27:16.514Z,13.63
2022-09-05T01:29:14.598Z,13.63
2022-09-05T01:29:19.257Z,13.63
2022-09-05T01:30:16.427Z,14.72
2022-09-05T01:31:17.046Z,14.67
2022-09-05T01:32:16.398Z,14.67
2022-09-05T01:33:16.848Z,13.47
2022-09-05T01:34:17.259Z,13.47
2022-09-05T01:35:16.654Z,13.47
2022-09-05T01:36:17.115Z,13.47
2022-09-05T01:37:24.996Z,13.43
2022-09-05T01:38:16.856Z,13.43
2022-09-05T01:39:47.611Z,13.43
2022-09-05T01:40:17.195Z,13.37
2022-09-05T01:41:18.999Z,13.37
2022-09-05T01:42:17.043Z,13.34
2022-09-05T01:43:16.534Z,13.36
2022-09-05T01:44:17.027Z,13.36
2022-09-05T01:45:16.487Z,13.36
2022-09-05T01:46:16.958Z,14.43
2022-09-05T01:47:25.571Z,13.32
2022-09-05T01:48:16.595Z,13.26
2022-09-05T01:49:17.101Z,13.26
2022-09-05T01:50:17.121Z,13.23
2022-09-05T01:51:28.523Z,13.23
2022-09-05T01:52:16.906Z,13.23
2022-09-05T01:53:16.366Z,13.21
2022-09-05T01:54:23.757Z,13.23
2022-09-05T01:55:16.595Z,13.22
2022-09-05T01:56:17.052Z,13.22
2022-09-05T01:57:19.504Z,13.22
2022-09-05T01:58:17.191Z,13.09
2022-09-05T01:59:16.712Z,13.08
2022-09-05T02:00:17.188Z,13.11
2022-09-05T02:01:25.022Z,13.05
2022-09-05T02:02:17.410Z,13.06
2022-09-05T02:03:17.081Z,13.05
2022-09-05T02:04:16.564Z,13.02
2022-09-05T02:05:16.979Z,13.02
2022-09-05T02:06:16.418Z,13.02
2022-09-05T02:07:30.008Z,12.98
2022-09-05T02:08:16.855Z,12.98
2022-09-05T02:09:17.279Z,12.98
2022-09-05T02:10:16.703Z,12.94
2022-09-05T02:11:35.391Z,12.94
2022-09-05T02:12:17.130Z,12.92
2022-09-05T02:13:16.591Z,12.92
2022-09-05T02:14:24.275Z,12.91
2022-09-05T02:15:16.741Z,12.89
2022-09-05T02:16:17.230Z,12.87
2022-09-05T02:17:23.745Z,12.84
2022-09-05T02:18:17.215Z,12.84
2022-09-05T02:19:16.625Z,12.84
2022-09-05T02:20:23.406Z,12.78
2022-09-05T02:21:16.696Z,12.78
2022-09-05T02:22:17.200Z,12.77
2022-09-05T02:23:24.564Z,12.77
2022-09-05T02:24:17.111Z,12.77
2022-09-05T02:25:30.203Z,14.22
2022-09-05T02:26:17.023Z,12.79
2022-09-05T02:27:31.525Z,12.79
2022-09-05T02:28:16.936Z,12.79
2022-09-05T02:29:28.682Z,12.79
2022-09-05T02:30:16.288Z,12.77
2022-09-05T02:31:19.293Z,12.77
2022-09-05T02:32:16.551Z,12.70
2022-09-05T02:33:16.964Z,12.70
2022-09-05T02:34:16.400Z,12.70
2022-09-05T02:35:16.845Z,14.12
2022-09-05T02:36:17.279Z,12.64
2022-09-05T02:37:21.554Z,12.64
2022-09-05T02:39:07.562Z,12.63
2022-09-05T02:42:14.180Z,12.63
2022-09-05T02:43:12.840Z,12.66
2022-09-05T02:45:04.590Z,12.66
2022-09-05T02:45:05.083Z,14.10
2022-09-05T02:45:05.563Z,12.66
2022-09-05T02:45:05.581Z,12.66
2022-09-05T02:45:25.147Z,12.66
2022-09-05T02:46:17.334Z,12.61
2022-09-05T02:47:16.971Z,12.60
2022-09-05T02:48:16.399Z,12.60
2022-09-05T02:49:24.594Z,12.60
2022-09-05T02:51:30.486Z,12.61
2022-09-05T02:53:57.853Z,12.61
2022-09-05T02:54:27.815Z,12.57
2022-09-05T02:55:38.529Z,12.56
2022-09-05T02:57:31.044Z,12.50
2022-09-05T02:57:31.847Z,12.56
2022-09-05T02:57:31.952Z,12.50
2022-09-05T02:57:32.359Z,12.56
2022-09-05T02:58:16.821Z,12.51
2022-09-05T02:59:18.297Z,12.51
2022-09-05T03:00:17.103Z,12.36
2022-09-05T03:01:16.653Z,12.37
2022-09-05T03:02:25.855Z,12.36
2022-09-05T03:03:16.539Z,12.35
2022-09-05T03:04:17.120Z,12.35
2022-09-05T03:05:16.584Z,12.35
2022-09-05T03:06:26.000Z,12.33
2022-09-05T03:07:16.575Z,12.35
2022-09-05T03:08:17.004Z,12.35
2022-09-05T03:09:16.608Z,12.33
2022-09-05T03:10:17.125Z,12.33
2022-09-05T03:11:16.571Z,12.33
2022-09-05T03:12:28.172Z,12.39
2022-09-05T03:13:16.311Z,12.39
2022-09-05T03:14:16.770Z,12.37
2022-09-05T03:15:18.541Z,12.37
2022-09-05T03:16:16.842Z,12.39
2022-09-05T03:17:16.380Z,12.39
2022-09-05T03:18:20.481Z,12.39
2022-09-05T03:19:16.942Z,13.82
2022-09-05T03:20:16.403Z,12.37
2022-09-05T03:21:16.858Z,12.37
2022-09-05T03:22:16.448Z,12.37
2022-09-05T03:23:16.876Z,13.73
2022-09-05T03:24:16.308Z,13.70
2022-09-05T03:25:16.734Z,13.70
2022-09-05T03:26:17.199Z,13.66
2022-09-05T03:27:16.668Z,13.63
2022-09-05T03:28:16.396Z,13.66
2022-09-05T03:29:16.858Z,13.62
2022-09-05T03:30:16.337Z,12.29
2022-09-05T03:31:20.316Z,12.29
2022-09-05T03:32:17.242Z,12.29
2022-09-05T03:33:16.680Z,12.26
2022-09-05T03:34:17.101Z,12.26
2022-09-05T03:35:16.523Z,12.26
2022-09-05T03:36:18.875Z,12.26
2022-09-05T03:37:16.471Z,13.46
2022-09-05T03:38:16.907Z,13.46
2022-09-05T03:39:16.347Z,12.16
2022-09-05T03:40:16.995Z,12.16
2022-09-05T03:41:16.622Z,12.11
2022-09-05T03:42:16.851Z,12.11
2022-09-05T03:43:16.550Z,12.12
2022-09-05T03:44:17.247Z,12.12
2022-09-05T03:45:16.751Z,12.12
2022-09-05T03:46:16.850Z,13.43
2022-09-05T03:47:16.351Z,11.99
2022-09-05T03:48:24.708Z,11.99
2022-09-05T03:49:17.639Z,11.99
2022-09-05T03:52:16.828Z,11.99
2022-09-05T03:54:59.770Z,11.99
2022-09-05T03:56:05.596Z,11.99
2022-09-05T03:57:09.458Z,11.95
2022-09-05T03:57:09.587Z,11.93
2022-09-05T03:57:09.634Z,11.93
2022-09-05T03:57:09.645Z,13.37
2022-09-05T03:57:32.157Z,11.93
2022-09-05T03:58:18.296Z,11.93
2022-09-05T03:59:16.784Z,11.93
2022-09-05T04:00:17.263Z,13.28
2022-09-05T04:01:30.672Z,11.88
2022-09-05T04:03:00.086Z,11.86
2022-09-05T04:05:23.959Z,11.86
2022-09-05T04:06:58.420Z,11.88
2022-09-05T04:07:41.468Z,11.88
2022-09-05T04:08:12.222Z,11.89
2022-09-05T04:08:12.677Z,11.89
2022-09-05T04:08:29.507Z,11.89
2022-09-05T04:09:26.616Z,13.20
2022-09-05T04:10:17.098Z,13.18
2022-09-05T04:11:16.755Z,13.13
2022-09-05T04:12:16.991Z,13.08
2022-09-05T04:13:17.127Z,11.91
2022-09-05T04:14:16.788Z,11.91
2022-09-05T04:15:17.231Z,11.91
2022-09-05T04:16:16.757Z,11.91
2022-09-05T04:17:16.336Z,11.91
2022-09-05T04:18:16.749Z,11.91
2022-09-05T04:19:17.099Z,11.91
2022-09-05T04:20:16.517Z,11.91
2022-09-05T04:21:16.962Z,11.91
2022-09-05T04:22:16.816Z,11.91
2022-09-05T04:23:17.279Z,11.88
2022-09-05T04:24:16.712Z,11.88
2022-09-05T04:25:17.163Z,11.85
2022-09-05T04:26:16.600Z,11.85
2022-09-05T04:27:17.062Z,11.84
2022-09-05T04:28:16.518Z,11.81
2022-09-05T04:29:16.991Z,11.81
2022-09-05T04:30:39.261Z,11.80
2022-09-05T04:31:16.463Z,11.78
2022-09-05T04:32:17.770Z,11.77
2022-09-05T04:33:17.090Z,11.78
2022-09-05T04:34:16.543Z,11.81
2022-09-05T04:35:16.973Z,11.89
2022-09-05T04:36:17.992Z,11.89
2022-09-05T04:37:16.968Z,11.89
2022-09-05T04:38:16.398Z,11.88
2022-09-05T04:39:16.866Z,11.98
2022-09-05T04:40:16.359Z,11.98
2022-09-05T04:41:16.792Z,11.96
2022-09-05T04:42:16.355Z,11.96
2022-09-05T04:43:16.286Z,11.96
2022-09-05T04:44:16.765Z,11.96
2022-09-05T04:45:17.427Z,11.98
2022-09-05T04:46:19.089Z,11.98
2022-09-05T04:47:16.935Z,11.99
2022-09-05T04:48:18.762Z,11.99
2022-09-05T04:49:16.583Z,12.03
2022-09-05T04:50:16.587Z,12.05
2022-09-05T04:51:17.046Z,12.03
2022-09-05T04:52:16.803Z,12.03
2022-09-05T04:53:17.117Z,12.02
2022-09-05T04:54:16.572Z,12.02
2022-09-05T04:55:17.040Z,12.02
2022-09-05T04:56:17.047Z,12.03
2022-09-05T04:57:16.498Z,12.03
2022-09-05T04:58:16.935Z,12.09
2022-09-05T05:00:16.844Z,12.05
2022-09-05T05:02:29.867Z,12.05
2022-09-05T05:03:27.540Z,12.08
2022-09-05T05:06:06.985Z,12.16
2022-09-05T05:06:07.031Z,12.08
2022-09-05T05:06:07.837Z,12.12
2022-09-05T05:06:08.003Z,12.16
2022-09-05T05:06:29.105Z,12.12
2022-09-05T05:07:16.819Z,12.16
2022-09-05T05:08:16.471Z,12.19
2022-09-05T05:09:17.116Z,12.20
2022-09-05T05:10:40.534Z,12.19
2022-09-05T05:14:17.611Z,12.25
2022-09-05T05:15:41.970Z,12.26
2022-09-05T05:16:32.515Z,12.25
2022-09-05T05:16:32.560Z,12.28
2022-09-05T05:18:04.415Z,12.33
2022-09-05T05:18:05.140Z,12.29
2022-09-05T05:18:05.801Z,12.30
2022-09-05T05:18:39.098Z,12.32
2022-09-05T05:19:20.613Z,12.32
2022-09-05T05:20:40.967Z,12.32
2022-09-05T05:21:17.144Z,12.33
2022-09-05T05:22:16.704Z,12.35
2022-09-05T05:23:17.169Z,12.35
2022-09-05T05:24:16.637Z,12.36
2022-09-05T05:25:16.351Z,12.35
2022-09-05T05:26:16.350Z,12.37
2022-09-05T05:27:16.787Z,12.36
2022-09-05T05:28:24.922Z,12.41
2022-09-05T05:29:19.356Z,12.40
2022-09-05T05:30:17.220Z,12.41
2022-09-05T05:31:16.677Z,12.44
2022-09-05T05:32:16.608Z,12.44
2022-09-05T05:33:16.918Z,12.47
2022-09-05T05:34:23.843Z,12.44
2022-09-05T05:35:16.531Z,12.50
2022-09-05T05:36:16.968Z,12.51
2022-09-05T05:37:16.448Z,12.56
2022-09-05T05:38:16.902Z,12.57
2022-09-05T05:39:16.371Z,12.58
2022-09-05T05:40:16.817Z,12.60
2022-09-05T05:41:17.283Z,12.61
2022-09-05T05:42:20.421Z,12.67
2022-09-05T05:43:17.019Z,12.68
2022-09-05T05:44:16.467Z,12.72
2022-09-05T05:45:16.889Z,12.72
2022-09-05T05:46:16.385Z,12.72
2022-09-05T05:47:17.021Z,12.79
2022-09-05T05:48:16.780Z,12.81
2022-09-05T05:49:17.084Z,12.87
2022-09-05T05:50:16.511Z,12.88
2022-09-05T05:51:16.939Z,12.88
2022-09-05T05:52:16.649Z,12.91
2022-09-05T05:53:29.075Z,12.95
2022-09-05T05:54:16.594Z,12.98
2022-09-05T05:55:28.519Z,13.01
2022-09-05T05:56:16.555Z,13.09
2022-09-05T05:57:17.002Z,13.11
2022-09-05T05:58:16.454Z,13.15
2022-09-05T05:59:18.455Z,13.18
2022-09-05T06:00:17.114Z,13.22
2022-09-05T06:01:28.845Z,13.23
2022-09-05T06:02:17.234Z,13.34
2022-09-05T06:03:26.149Z,13.37
2022-09-05T06:04:17.061Z,13.40
2022-09-05T06:05:16.504Z,13.39
2022-09-05T06:06:16.946Z,13.44
2022-09-05T06:07:16.413Z,13.53
2022-09-05T06:08:57.301Z,13.54
2022-09-05T06:11:00.950Z,13.58
2022-09-05T06:13:40.365Z,13.64
2022-09-05T06:14:53.771Z,13.98
2022-09-05T06:14:53.809Z,13.78
2022-09-05T06:14:54.276Z,14.01
2022-09-05T06:14:54.496Z,13.73
2022-09-05T06:15:22.206Z,14.05
2022-09-05T06:16:16.774Z,14.11
2022-09-05T06:17:17.297Z,14.18
2022-09-05T06:18:16.897Z,14.20
2022-09-05T06:19:16.359Z,14.25
2022-09-05T06:20:45.889Z,14.30
2022-09-05T06:22:05.159Z,14.36
2022-09-05T06:22:19.308Z,14.35
2022-09-05T06:23:27.536Z,14.41
2022-09-05T06:24:21.129Z,14.43
2022-09-05T06:25:17.507Z,14.50
2022-09-05T06:26:17.091Z,14.53
2022-09-05T06:27:16.529Z,14.55
2022-09-05T06:28:18.308Z,14.57
2022-09-05T06:29:16.450Z,14.59
2022-09-05T06:30:16.887Z,14.74
2022-09-05T06:31:29.647Z,14.77
2022-09-05T06:32:16.670Z,14.90
2022-09-05T06:33:17.219Z,14.92
2022-09-05T06:34:27.989Z,15.04
2022-09-05T06:35:17.141Z,15.06
2022-09-05T06:36:16.638Z,15.09
2022-09-05T06:37:17.110Z,15.12
2022-09-05T06:38:16.606Z,15.12
2022-09-05T06:39:17.087Z,15.16
2022-09-05T06:40:16.559Z,15.32
2022-09-05T06:41:16.968Z,15.41
2022-09-05T06:42:30.601Z,15.46
2022-09-05T06:43:17.182Z,15.62
2022-09-05T06:44:16.595Z,15.64
2022-09-05T06:45:28.023Z,15.67
2022-09-05T06:46:16.416Z,15.67
2022-09-05T06:47:23.131Z,15.73
2022-09-05T06:48:19.844Z,15.84
2022-09-05T06:49:28.170Z,15.88
2022-09-05T06:50:23.956Z,15.92
2022-09-05T06:51:16.424Z,15.90
2022-09-05T06:52:28.053Z,16.04
2022-09-05T06:53:19.804Z,16.09
2022-09-05T06:54:16.525Z,16.11
2022-09-05T06:55:17.021Z,16.21
2022-09-05T06:56:25.663Z,16.21
2022-09-05T06:57:17.021Z,16.32
2022-09-05T06:58:16.444Z,16.38
2022-09-05T06:59:16.858Z,16.43
2022-09-05T07:00:19.682Z,16.35
2022-09-05T07:01:17.375Z,16.43
2022-09-05T07:02:16.818Z,16.47
2022-09-05T07:03:17.366Z,16.47
2022-09-05T07:04:33.498Z,16.55
2022-09-05T07:05:24.374Z,16.63
2022-09-05T07:06:19.377Z,16.67
2022-09-05T07:07:16.988Z,16.64
2022-09-05T07:08:33.115Z,16.64
2022-09-05T07:09:17.071Z,16.67
2022-09-05T07:10:37.193Z,16.70
2022-09-05T07:11:17.343Z,16.67
2022-09-05T07:12:16.767Z,16.68
2022-09-05T07:13:17.246Z,16.86
2022-09-05T07:14:16.685Z,16.93
2022-09-05T07:15:17.121Z,17.04
2022-09-05T07:16:17.062Z,17.11
2022-09-05T07:17:16.611Z,17.24
2022-09-05T07:18:17.086Z,17.36
2022-09-05T07:19:16.592Z,17.50
2022-09-05T07:20:17.061Z,17.50
2022-09-05T07:21:26.200Z,17.28
2022-09-05T07:22:18.612Z,17.31
2022-09-05T07:23:18.111Z,17.32
2022-09-05T07:24:19.764Z,17.32
2022-09-05T07:25:18.163Z,17.35
2022-09-05T07:26:25.275Z,17.52
2022-09-05T07:27:16.684Z,17.66
2022-09-05T07:28:27.201Z,17.69
2022-09-05T07:29:16.933Z,17.74
2022-09-05T07:30:16.371Z,17.80
2022-09-05T07:31:26.391Z,17.74
2022-09-05T07:32:17.264Z,17.93
2022-09-05T07:33:16.584Z,18.01
2022-09-05T07:34:21.040Z,18.14
2022-09-05T07:35:17.177Z,18.15
2022-09-05T07:36:16.639Z,18.17
2022-09-05T07:37:17.099Z,18.07
2022-09-05T07:38:16.570Z,18.05
2022-09-05T07:39:28.026Z,18.17
2022-09-05T07:40:25.543Z,18.46
2022-09-05T07:41:16.407Z,18.44
2022-09-05T07:42:16.860Z,18.62
2022-09-05T07:43:18.814Z,18.58
2022-09-05T07:44:16.588Z,18.60
2022-09-05T07:45:17.044Z,18.66
2022-09-05T07:46:16.547Z,18.66
2022-09-05T07:47:17.070Z,18.72
2022-09-05T07:48:16.549Z,18.75
2022-09-05T07:49:16.702Z,18.90
2022-09-05T07:51:00.760Z,18.90
2022-09-05T07:53:53.472Z,18.93
2022-09-05T07:55:02.130Z,18.84
2022-09-05T07:55:57.511Z,18.80
2022-09-05T07:56:48.338Z,18.87
2022-09-05T07:56:48.572Z,19.20
2022-09-05T07:56:57.115Z,18.91
2022-09-05T07:57:25.288Z,19.32
2022-09-05T07:58:16.932Z,19.31
2022-09-05T07:59:16.371Z,19.30
2022-09-05T08:00:26.301Z,19.30
2022-09-05T08:01:17.208Z,19.48
2022-09-05T08:02:17.127Z,19.63
2022-09-05T08:03:16.568Z,19.69
2022-09-05T08:04:17.009Z,19.73
2022-09-05T08:05:16.479Z,19.74
2022-09-05T08:06:18.428Z,19.68
2022-09-05T08:07:46.283Z,19.66
2022-09-05T08:08:16.962Z,19.66
2022-09-05T08:09:21.327Z,19.73
2022-09-05T08:10:16.461Z,19.77
2022-09-05T08:11:23.068Z,20.00
2022-09-05T08:12:16.502Z,19.96
2022-09-05T08:13:23.273Z,19.94
2022-09-05T08:14:35.470Z,20.04
2022-09-05T08:15:16.508Z,20.13
2022-09-05T08:16:16.510Z,20.14
2022-09-05T08:17:17.049Z,20.24
2022-09-05T08:18:16.491Z,20.31
2022-09-05T08:19:16.969Z,20.32
2022-09-05T08:20:16.402Z,20.56
2022-09-05T08:21:16.851Z,20.62
2022-09-05T08:22:16.568Z,20.54
2022-09-05T08:23:16.988Z,20.55
2022-09-05T08:24:16.403Z,20.62
2022-09-05T08:25:16.844Z,20.68
2022-09-05T08:26:17.292Z,20.69
2022-09-05T08:27:17.011Z,20.76
2022-09-05T08:28:16.520Z,20.82
2022-09-05T08:29:16.968Z,20.83
2022-09-05T08:30:25.289Z,20.92
2022-09-05T08:31:16.506Z,20.84
2022-09-05T08:32:16.437Z,20.89
2022-09-05T08:33:16.886Z,20.96
2022-09-05T08:34:16.329Z,21.03
2022-09-05T08:35:16.796Z,21.09
2022-09-05T08:36:17.243Z,21.03
2022-09-05T08:37:21.358Z,21.21
2022-09-05T08:38:16.357Z,21.31
2022-09-05T08:39:16.791Z,21.76
2022-09-05T08:40:17.339Z,21.92
2022-09-05T08:41:16.973Z,21.82
2022-09-05T08:42:16.864Z,21.91
2022-09-05T08:44:40.286Z,21.92
2022-09-05T08:46:26.820Z,21.82
2022-09-05T08:46:38.209Z,21.83
2022-09-05T08:46:45.230Z,21.92
2022-09-05T08:47:17.225Z,22.00
2022-09-05T08:48:16.779Z,22.03
2022-09-05T08:49:20.228Z,22.06
2022-09-05T08:50:17.124Z,22.16
2022-09-05T08:51:16.559Z,22.21
2022-09-05T08:52:17.231Z,22.19
2022-09-05T08:53:18.818Z,22.27
2022-09-05T08:54:17.104Z,22.41
2022-09-05T08:55:16.529Z,22.34
2022-09-05T08:56:18.098Z,22.19
2022-09-05T08:57:16.400Z,22.09
2022-09-05T08:58:16.820Z,22.12
2022-09-05T08:59:27.323Z,22.21
2022-09-05T09:00:20.067Z,22.43
2022-09-05T09:01:17.189Z,22.48
2022-09-05T09:02:45.746Z,22.47
2022-09-05T09:03:16.516Z,22.44
2022-09-05T09:04:17.126Z,22.50
2022-09-05T09:05:16.655Z,22.78
2022-09-05T09:06:17.135Z,22.71
2022-09-05T09:07:45.021Z,22.67
2022-09-05T09:08:17.004Z,22.76
2022-09-05T09:09:16.440Z,22.57
2022-09-05T09:10:22.525Z,22.61
2022-09-05T09:11:16.586Z,22.50
2022-09-05T09:12:16.445Z,22.53
2022-09-05T09:13:16.880Z,22.58
2022-09-05T09:14:16.442Z,22.72
2022-09-05T09:15:16.621Z,22.81
2022-09-05T09:16:17.199Z,23.16
2022-09-05T09:17:16.751Z,23.09
2022-09-05T09:18:17.230Z,23.10
2022-09-05T09:19:16.687Z,23.06
2022-09-05T09:20:17.173Z,23.03
2022-09-05T09:21:16.618Z,23.15
2022-09-05T09:22:17.137Z,23.23
2022-09-05T09:23:29.007Z,23.32
2022-09-05T09:24:16.524Z,23.47
2022-09-05T09:25:18.491Z,23.36
2022-09-05T09:26:17.212Z,23.23
2022-09-05T09:27:16.658Z,23.23
2022-09-05T09:28:47.026Z,23.25
2022-09-05T09:29:17.150Z,23.32
2022-09-05T09:30:16.629Z,23.23
2022-09-05T09:31:17.187Z,23.39
2022-09-05T09:32:16.359Z,23.30
2022-09-05T09:33:16.807Z,23.33
2022-09-05T09:34:16.312Z,23.22
2022-09-05T09:35:16.773Z,23.26
2022-09-05T09:36:16.486Z,23.25
2022-09-05T09:37:16.943Z,23.27
2022-09-05T09:38:16.544Z,23.27
2022-09-05T09:39:37.214Z,23.34
2022-09-05T09:40:16.640Z,23.46
2022-09-05T09:41:17.184Z,23.37
2022-09-05T09:42:33.021Z,23.41
2022-09-05T09:43:17.003Z,23.26
2022-09-05T09:44:16.459Z,23.30
2022-09-05T09:45:22.649Z,23.34
2022-09-05T09:46:17.050Z,23.39
2022-09-05T09:47:16.661Z,23.40
2022-09-05T09:48:17.173Z,23.36
2022-09-05T09:49:22.805Z,23.50
2022-09-05T09:50:17.087Z,23.41
2022-09-05T09:51:16.499Z,23.46
2022-09-05T09:52:20.543Z,23.58
2022-09-05T09:53:16.833Z,23.87
2022-09-05T09:54:17.288Z,23.87
2022-09-05T09:55:17.402Z,23.84
2022-09-05T09:56:16.961Z,24.20
2022-09-05T09:57:16.383Z,24.16
2022-09-05T09:58:16.811Z,23.98
2022-09-05T09:59:17.260Z,24.02
2022-09-05T10:00:16.716Z,24.19
2022-09-05T10:01:20.311Z,24.16
2022-09-05T10:02:29.128Z,24.08
2022-09-05T10:03:17.126Z,24.16
2022-09-05T10:05:04.261Z,24.01
2022-09-05T10:10:02.977Z,23.96
2022-09-05T10:10:36.652Z,24.43
2022-09-05T10:10:36.735Z,24.54
2022-09-05T10:10:36.741Z,24.61
2022-09-05T10:10:41.137Z,24.51
2022-09-05T10:10:41.199Z,24.78
2022-09-05T10:11:48.486Z,24.82
2022-09-05T10:12:17.159Z,24.85
2022-09-05T10:13:16.817Z,24.78
2022-09-05T10:14:22.074Z,24.80
2022-09-05T10:15:31.030Z,24.72
2022-09-05T10:16:16.743Z,24.78
2022-09-05T10:17:16.691Z,24.60
2022-09-05T10:18:16.719Z,24.22
2022-09-05T10:19:16.340Z,24.05
2022-09-05T10:20:16.786Z,24.06
2022-09-05T10:21:17.790Z,24.24
2022-09-05T10:22:37.725Z,24.43
2022-09-05T10:23:16.832Z,24.56
2022-09-05T10:24:17.255Z,24.88
2022-09-05T10:25:19.003Z,25.02
2022-09-05T10:26:16.580Z,24.97
2022-09-05T10:27:17.025Z,24.91
2022-09-05T10:28:16.511Z,24.95
2022-09-05T10:29:30.228Z,24.88
2022-09-05T10:30:16.831Z,24.88
2022-09-05T10:32:13.647Z,24.75
2022-09-05T10:32:56.068Z,24.71
2022-09-05T10:35:05.429Z,24.75
2022-09-05T10:35:12.651Z,24.72
2022-09-05T10:35:22.120Z,24.68
2022-09-05T10:36:17.388Z,24.68
2022-09-05T10:37:18.236Z,24.43
2022-09-05T10:38:16.856Z,24.42
2022-09-05T10:39:16.295Z,24.36
2022-09-05T10:40:16.743Z,24.29
2022-09-05T10:41:20.641Z,24.32
2022-09-05T10:42:16.641Z,24.33
2022-09-05T10:43:17.111Z,24.36
2022-09-05T10:44:16.561Z,24.35
2022-09-05T10:45:17.004Z,24.24
2022-09-05T10:46:33.875Z,24.20
2022-09-05T10:47:16.970Z,24.23
2022-09-05T10:48:16.564Z,24.27
2022-09-05T10:49:16.998Z,24.24
2022-09-05T10:50:16.438Z,24.36
2022-09-05T10:51:26.248Z,24.29
2022-09-05T10:52:18.336Z,24.17
2022-09-05T10:53:17.155Z,24.20
2022-09-05T10:54:16.576Z,24.15
2022-09-05T10:55:17.055Z,24.20
2022-09-05T10:56:16.709Z,24.22
2022-09-05T10:57:17.154Z,24.24
2022-09-05T10:58:16.635Z,24.20
2022-09-05T11:00:56.437Z,24.32
2022-09-05T11:02:16.732Z,24.30
2022-09-05T11:02:25.043Z,24.38
2022-09-05T11:02:25.303Z,24.38
2022-09-05T11:03:22.823Z,24.42
2022-09-05T11:04:16.999Z,24.38
2022-09-05T11:05:16.682Z,24.43
2022-09-05T11:06:17.248Z,24.40
2022-09-05T11:07:16.702Z,24.39
2022-09-05T11:08:17.131Z,24.42
2022-09-05T11:09:16.775Z,24.51
2022-09-05T11:10:17.246Z,24.51
2022-09-05T11:11:17.210Z,24.49
2022-09-05T11:12:16.684Z,24.56
2022-09-05T11:13:17.151Z,24.60
2022-09-05T11:14:21.201Z,24.63
2022-09-05T11:15:16.748Z,24.57
2022-09-05T11:16:17.245Z,24.46
2022-09-05T11:17:16.803Z,24.51
2022-09-05T11:18:17.284Z,24.59
2022-09-05T11:19:16.729Z,24.59
2022-09-05T11:20:20.761Z,24.54
2022-09-05T11:21:16.639Z,24.57
2022-09-05T11:22:22.333Z,24.56
2022-09-05T11:23:16.843Z,24.64
2022-09-05T11:24:17.273Z,24.68
2022-09-05T11:25:16.702Z,24.75
2022-09-05T11:26:17.231Z,24.68
2022-09-05T11:27:24.130Z,24.63
2022-09-05T11:28:16.458Z,24.53
2022-09-05T11:29:16.937Z,24.50
2022-09-05T11:30:28.382Z,24.46
2022-09-05T11:31:17.064Z,24.50
2022-09-05T11:32:42.168Z,24.43
2022-09-05T11:35:45.361Z,24.46
2022-09-05T11:36:06.979Z,24.60
2022-09-05T11:38:02.819Z,24.54
2022-09-05T11:39:49.685Z,24.54
2022-09-05T11:39:49.876Z,24.70
2022-09-05T11:40:00.969Z,24.67
2022-09-05T11:40:01.374Z,24.71
2022-09-05T11:40:27.169Z,24.64
2022-09-05T11:41:17.360Z,24.66
2022-09-05T11:42:17.289Z,24.68
2022-09-05T11:43:16.881Z,24.63
2022-09-05T11:44:25.386Z,24.67
2022-09-05T11:45:16.815Z,24.70
2022-09-05T11:46:17.325Z,24.74
2022-09-05T11:47:28.503Z,24.74
2022-09-05T11:48:16.591Z,24.71
2022-09-05T11:49:17.006Z,24.68
2022-09-05T11:50:16.452Z,24.71
2022-09-05T11:51:16.864Z,24.78
2022-09-05T11:52:16.383Z,24.84
2022-09-05T11:53:16.821Z,24.91
2022-09-05T11:54:17.312Z,24.97
2022-09-05T11:55:20.791Z,25.04
2022-09-05T11:56:17.139Z,25.04
2022-09-05T11:57:33.010Z,25.19
2022-09-05T11:58:43.318Z,25.11
2022-09-05T11:59:33.244Z,25.02
2022-09-05T12:00:31.006Z,25.05
2022-09-05T12:01:38.292Z,24.98
2022-09-05T12:02:23.541Z,24.92
2022-09-05T12:03:38.558Z,24.97
2022-09-05T12:04:17.270Z,24.88
2022-09-05T12:05:48.224Z,24.70
2022-09-05T12:06:17.329Z,24.80
2022-09-05T12:07:30.661Z,24.78
2022-09-05T12:08:16.477Z,24.80
2022-09-05T12:09:20.328Z,24.82
2022-09-05T12:10:43.689Z,24.81
2022-09-05T12:11:16.349Z,24.82
2022-09-05T12:12:18.605Z,24.87
2022-09-05T12:13:17.058Z,25.01
2022-09-05T12:14:21.484Z,25.15
2022-09-05T12:15:16.352Z,25.23
2022-09-05T12:16:16.837Z,25.18
2022-09-05T12:17:17.190Z,25.25
2022-09-05T12:18:19.223Z,25.32
2022-09-05T12:19:19.458Z,25.32
2022-09-05T12:21:17.518Z,25.55
2022-09-05T12:22:18.787Z,25.80
2022-09-05T12:23:24.871Z,25.81
2022-09-05T12:25:15.446Z,25.73
2022-09-05T12:25:24.579Z,25.69
2022-09-05T12:27:37.234Z,25.59
2022-09-05T12:27:43.398Z,25.69
2022-09-05T12:29:09.783Z,25.70
2022-09-05T12:29:28.424Z,25.60
2022-09-05T12:30:16.692Z,25.81
2022-09-05T12:32:06.893Z,25.97
2022-09-05T12:32:36.405Z,26.13
2022-09-05T12:34:46.785Z,26.11
2022-09-05T12:36:03.020Z,26.27
2022-09-05T12:36:09.110Z,26.36
2022-09-05T12:38:44.651Z,26.39
2022-09-05T12:39:43.918Z,26.38
2022-09-05T12:40:05.353Z,26.58
2022-09-05T12:40:45.203Z,26.55
2022-09-05T12:40:57.190Z,26.63
2022-09-05T12:41:40.194Z,26.39
2022-09-05T12:41:48.121Z,25.36
2022-09-05T12:42:22.073Z,26.39
2022-09-05T12:44:24.717Z,26.36
2022-09-05T12:44:40.662Z,26.42
2022-09-05T12:45:16.994Z,26.50
2022-09-05T12:46:24.102Z,27.03
2022-09-05T12:47:19.914Z,26.82
2022-09-05T12:48:17.268Z,26.76
2022-09-05T12:49:17.138Z,26.71
2022-09-05T12:50:16.642Z,26.85
2022-09-05T12:51:18.088Z,26.98
2022-09-05T12:52:16.616Z,26.89
2022-09-05T12:53:17.063Z,26.91